sensor_id;sensor_type;location;lat;lon;timestamp;temperature;humidity
9658;DHT22;4867;48.112;11.622;2023-04-15T00:01:06;6.00;99.90
9658;DHT22;4867;48.112;11.622;2023-04-15T00:03:34;6.00;99.90
9658;DHT22;4867;48.112;11.622;2023-04-15T00:06:02;6.00;99.90
9658;DHT22;4867;48.112;11.622;2023-04-15T00:08:29;5.90;99.90
9658;DHT22;4867;48.112;11.622;2023-04-15T00:10:57;5.90;99.90
9658;DHT22;4867;48.112;11.622;2023-04-15T00:13:28;5.90;99.90
9658;DHT22;4867;48.112;11.622;2023-04-15T00:15:56;5.90;99.90
9658;DHT22;4867;48.112;11.622;2023-04-15T00:18:23;5.90;99.90
9658;DHT22;4867;48.112;11.622;2023-04-15T00:20:51;5.90;99.90
9658;DHT22;4867;48.112;11.622;2023-04-15T00:23:18;6.00;99.90
9658;DHT22;4867;48.112;11.622;2023-04-15T00:25:46;6.00;99.90
9658;DHT22;4867;48.112;11.622;2023-04-15T00:28:13;6.00;99.90
9658;DHT22;4867;48.112;11.622;2023-04-15T00:30:42;6.00;99.90
9658;DHT22;4867;48.112;11.622;2023-04-15T00:33:09;6.10;99.90
9658;DHT22;4867;48.112;11.622;2023-04-15T00:35:37;6.00;99.90
9658;DHT22;4867;48.112;11.622;2023-04-15T00:38:05;6.00;99.90
9658;DHT22;4867;48.112;11.622;2023-04-15T00:40:36;5.90;99.90
9658;DHT22;4867;48.112;11.622;2023-04-15T00:43:03;5.90;99.90
9658;DHT22;4867;48.112;11.622;2023-04-15T00:45:31;5.90;99.90
9658;DHT22;4867;48.112;11.622;2023-04-15T00:47:59;5.90;99.90
9658;DHT22;4867;48.112;11.622;2023-04-15T00:50:26;6.00;99.90
9658;DHT22;4867;48.112;11.622;2023-04-15T00:52:54;5.90;99.90
9658;DHT22;4867;48.112;11.622;2023-04-15T00:55:21;6.00;99.90
9658;DHT22;4867;48.112;11.622;2023-04-15T00:57:49;6.00;99.90
9658;DHT22;4867;48.112;11.622;2023-04-15T01:00:16;6.00;99.90
9658;DHT22;4867;48.112;11.622;2023-04-15T01:02:45;5.90;99.90
9658;DHT22;4867;48.112;11.622;2023-04-15T01:05:13;5.90;99.90
9658;DHT22;4867;48.112;11.622;2023-04-15T01:07:43;5.90;99.90
9658;DHT22;4867;48.112;11.622;2023-04-15T01:10:10;5.90;99.90
9658;DHT22;4867;48.112;11.622;2023-04-15T01:12:38;5.90;99.90
9658;DHT22;4867;48.112;11.622;2023-04-15T01:15:07;5.90;99.90
9658;DHT22;4867;48.112;11.622;2023-04-15T01:17:35;6.00;99.90
9658;DHT22;4867;48.112;11.622;2023-04-15T01:20:07;5.90;99.90
9658;DHT22;4867;48.112;11.622;2023-04-15T01:22:37;5.90;99.90
9658;DHT22;4867;48.112;11.622;2023-04-15T01:25:17;5.90;99.90
9658;DHT22;4867;48.112;11.622;2023-04-15T01:27:45;5.90;99.90
9658;DHT22;4867;48.112;11.622;2023-04-15T01:30:13;5.90;99.90
9658;DHT22;4867;48.112;11.622;2023-04-15T01:32:41;5.90;99.90
9658;DHT22;4867;48.112;11.622;2023-04-15T01:35:09;5.90;99.90
9658;DHT22;4867;48.112;11.622;2023-04-15T01:37:36;5.90;99.90
9658;DHT22;4867;48.112;11.622;2023-04-15T01:40:04;6.00;99.90
9658;DHT22;4867;48.112;11.622;2023-04-15T01:42:31;6.00;99.90
9658;DHT22;4867;48.112;11.622;2023-04-15T01:44:59;5.90;99.90
9658;DHT22;4867;48.112;11.622;2023-04-15T01:47:27;6.10;99.90
9658;DHT22;4867;48.112;11.622;2023-04-15T01:49:54;6.10;99.90
9658;DHT22;4867;48.112;11.622;2023-04-15T01:52:22;6.10;99.90
9658;DHT22;4867;48.112;11.622;2023-04-15T01:54:49;6.10;99.90
9658;DHT22;4867;48.112;11.622;2023-04-15T01:57:18;6.10;99.90
9658;DHT22;4867;48.112;11.622;2023-04-15T01:59:45;6.00;99.90
9658;DHT22;4867;48.112;11.622;2023-04-15T02:02:14;6.00;99.90
9658;DHT22;4867;48.112;11.622;2023-04-15T02:04:42;6.00;99.90
9658;DHT22;4867;48.112;11.622;2023-04-15T02:07:09;6.00;99.90
9658;DHT22;4867;48.112;11.622;2023-04-15T02:09:36;6.00;99.90
9658;DHT22;4867;48.112;11.622;2023-04-15T02:12:07;6.00;99.90
9658;DHT22;4867;48.112;11.622;2023-04-15T02:14:34;6.10;99.90
9658;DHT22;4867;48.112;11.622;2023-04-15T02:17:01;5.90;99.90
9658;DHT22;4867;48.112;11.622;2023-04-15T02:19:34;6.00;99.90
9658;DHT22;4867;48.112;11.622;2023-04-15T02:22:02;5.80;99.90
9658;DHT22;4867;48.112;11.622;2023-04-15T02:24:30;5.90;99.90
9658;DHT22;4867;48.112;11.622;2023-04-15T02:26:57;5.90;99.90
9658;DHT22;4867;48.112;11.622;2023-04-15T02:29:24;5.90;99.90
9658;DHT22;4867;48.112;11.622;2023-04-15T02:31:52;5.90;99.90
9658;DHT22;4867;48.112;11.622;2023-04-15T02:34:19;5.90;99.90
9658;DHT22;4867;48.112;11.622;2023-04-15T02:36:47;5.90;99.90
9658;DHT22;4867;48.112;11.622;2023-04-15T02:39:15;5.80;99.90
9658;DHT22;4867;48.112;11.622;2023-04-15T02:41:44;5.90;99.90
9658;DHT22;4867;48.112;11.622;2023-04-15T02:44:17;5.90;99.90
9658;DHT22;4867;48.112;11.622;2023-04-15T02:46:48;5.90;99.90
9658;DHT22;4867;48.112;11.622;2023-04-15T02:49:18;5.90;99.90
9658;DHT22;4867;48.112;11.622;2023-04-15T02:51:45;5.90;99.90
9658;DHT22;4867;48.112;11.622;2023-04-15T02:54:16;5.90;99.90
9658;DHT22;4867;48.112;11.622;2023-04-15T02:56:43;5.90;99.90
9658;DHT22;4867;48.112;11.622;2023-04-15T02:59:11;5.90;99.90
9658;DHT22;4867;48.112;11.622;2023-04-15T03:01:39;5.80;99.90
9658;DHT22;4867;48.112;11.622;2023-04-15T03:04:06;5.80;99.90
9658;DHT22;4867;48.112;11.622;2023-04-15T03:06:35;5.80;99.90
9658;DHT22;4867;48.112;11.622;2023-04-15T03:09:02;5.80;99.90
9658;DHT22;4867;48.112;11.622;2023-04-15T03:11:34;5.80;99.90
9658;DHT22;4867;48.112;11.622;2023-04-15T03:14:08;5.80;99.90
9658;DHT22;4867;48.112;11.622;2023-04-15T03:16:39;5.80;99.90
9658;DHT22;4867;48.112;11.622;2023-04-15T03:19:06;5.80;99.90
9658;DHT22;4867;48.112;11.622;2023-04-15T03:21:34;5.80;99.90
9658;DHT22;4867;48.112;11.622;2023-04-15T03:24:02;5.80;99.90
9658;DHT22;4867;48.112;11.622;2023-04-15T03:26:30;5.80;99.90
9658;DHT22;4867;48.112;11.622;2023-04-15T03:29:05;5.80;99.90
9658;DHT22;4867;48.112;11.622;2023-04-15T03:31:33;5.80;99.90
9658;DHT22;4867;48.112;11.622;2023-04-15T03:34:00;5.70;99.90
9658;DHT22;4867;48.112;11.622;2023-04-15T03:36:30;5.80;99.90
9658;DHT22;4867;48.112;11.622;2023-04-15T03:38:59;5.80;99.90
9658;DHT22;4867;48.112;11.622;2023-04-15T03:41:28;5.90;99.90
9658;DHT22;4867;48.112;11.622;2023-04-15T03:43:56;5.80;99.90
9658;DHT22;4867;48.112;11.622;2023-04-15T03:46:23;5.80;99.90
9658;DHT22;4867;48.112;11.622;2023-04-15T03:48:50;5.90;99.90
9658;DHT22;4867;48.112;11.622;2023-04-15T03:51:17;5.90;99.90
9658;DHT22;4867;48.112;11.622;2023-04-15T03:53:44;5.80;99.90
9658;DHT22;4867;48.112;11.622;2023-04-15T03:56:11;5.80;99.90
9658;DHT22;4867;48.112;11.622;2023-04-15T03:58:39;5.80;99.90
9658;DHT22;4867;48.112;11.622;2023-04-15T04:01:06;5.80;99.90
9658;DHT22;4867;48.112;11.622;2023-04-15T04:03:33;5.90;99.90
9658;DHT22;4867;48.112;11.622;2023-04-15T04:06:00;5.90;99.90
9658;DHT22;4867;48.112;11.622;2023-04-15T04:08:28;5.90;99.90
9658;DHT22;4867;48.112;11.622;2023-04-15T04:10:55;5.90;99.90
9658;DHT22;4867;48.112;11.622;2023-04-15T04:13:22;5.90;99.90
9658;DHT22;4867;48.112;11.622;2023-04-15T04:15:50;6.00;99.90
9658;DHT22;4867;48.112;11.622;2023-04-15T04:18:17;5.90;99.90
9658;DHT22;4867;48.112;11.622;2023-04-15T04:20:44;5.90;99.90
9658;DHT22;4867;48.112;11.622;2023-04-15T04:23:12;6.00;99.90
9658;DHT22;4867;48.112;11.622;2023-04-15T04:25:39;5.80;99.90
9658;DHT22;4867;48.112;11.622;2023-04-15T04:28:06;5.90;99.90
9658;DHT22;4867;48.112;11.622;2023-04-15T04:30:34;5.90;99.90
9658;DHT22;4867;48.112;11.622;2023-04-15T04:33:01;5.80;99.90
9658;DHT22;4867;48.112;11.622;2023-04-15T04:35:29;5.80;99.90
9658;DHT22;4867;48.112;11.622;2023-04-15T04:37:56;5.80;99.90
9658;DHT22;4867;48.112;11.622;2023-04-15T04:40:24;5.80;99.90
9658;DHT22;4867;48.112;11.622;2023-04-15T04:42:51;5.80;99.90
9658;DHT22;4867;48.112;11.622;2023-04-15T04:45:19;5.70;99.90
9658;DHT22;4867;48.112;11.622;2023-04-15T04:47:46;5.80;99.90
9658;DHT22;4867;48.112;11.622;2023-04-15T04:50:13;5.80;99.90
9658;DHT22;4867;48.112;11.622;2023-04-15T04:52:41;5.80;99.90
9658;DHT22;4867;48.112;11.622;2023-04-15T04:55:08;5.80;99.90
9658;DHT22;4867;48.112;11.622;2023-04-15T04:57:35;5.80;99.90
9658;DHT22;4867;48.112;11.622;2023-04-15T05:00:04;5.80;99.90
9658;DHT22;4867;48.112;11.622;2023-04-15T05:02:32;5.80;99.90
9658;DHT22;4867;48.112;11.622;2023-04-15T05:05:00;5.90;99.90
9658;DHT22;4867;48.112;11.622;2023-04-15T05:07:27;5.80;99.90
9658;DHT22;4867;48.112;11.622;2023-04-15T05:09:54;5.90;99.90
9658;DHT22;4867;48.112;11.622;2023-04-15T05:12:21;5.90;99.90
9658;DHT22;4867;48.112;11.622;2023-04-15T05:14:49;5.90;99.90
9658;DHT22;4867;48.112;11.622;2023-04-15T05:17:16;5.90;99.90
9658;DHT22;4867;48.112;11.622;2023-04-15T05:19:43;5.90;99.90
9658;DHT22;4867;48.112;11.622;2023-04-15T05:22:10;5.80;99.90
9658;DHT22;4867;48.112;11.622;2023-04-15T05:24:37;5.90;99.90
9658;DHT22;4867;48.112;11.622;2023-04-15T05:27:05;5.90;99.90
9658;DHT22;4867;48.112;11.622;2023-04-15T05:29:32;5.90;99.90
9658;DHT22;4867;48.112;11.622;2023-04-15T05:31:59;5.90;99.90
9658;DHT22;4867;48.112;11.622;2023-04-15T05:34:27;6.00;99.90
9658;DHT22;4867;48.112;11.622;2023-04-15T05:36:54;6.00;99.90
9658;DHT22;4867;48.112;11.622;2023-04-15T05:39:21;6.00;99.90
9658;DHT22;4867;48.112;11.622;2023-04-15T05:41:48;6.10;99.90
9658;DHT22;4867;48.112;11.622;2023-04-15T05:44:15;6.00;99.90
9658;DHT22;4867;48.112;11.622;2023-04-15T05:46:43;6.00;99.90
9658;DHT22;4867;48.112;11.622;2023-04-15T05:49:10;6.00;99.90
9658;DHT22;4867;48.112;11.622;2023-04-15T05:51:38;6.00;99.90
9658;DHT22;4867;48.112;11.622;2023-04-15T05:54:05;5.90;99.90
9658;DHT22;4867;48.112;11.622;2023-04-15T05:56:32;5.90;99.90
9658;DHT22;4867;48.112;11.622;2023-04-15T05:59:00;6.10;99.90
9658;DHT22;4867;48.112;11.622;2023-04-15T06:01:27;6.10;99.90
9658;DHT22;4867;48.112;11.622;2023-04-15T06:03:55;6.10;99.90
9658;DHT22;4867;48.112;11.622;2023-04-15T06:06:23;6.20;99.90
9658;DHT22;4867;48.112;11.622;2023-04-15T06:08:50;6.30;99.90
9658;DHT22;4867;48.112;11.622;2023-04-15T06:11:17;6.30;99.90
9658;DHT22;4867;48.112;11.622;2023-04-15T06:13:44;6.30;99.90
9658;DHT22;4867;48.112;11.622;2023-04-15T06:16:12;6.20;99.90
9658;DHT22;4867;48.112;11.622;2023-04-15T06:18:39;6.40;99.90
9658;DHT22;4867;48.112;11.622;2023-04-15T06:21:06;6.40;99.90
9658;DHT22;4867;48.112;11.622;2023-04-15T06:23:34;6.60;99.90
9658;DHT22;4867;48.112;11.622;2023-04-15T06:26:07;6.50;99.90
9658;DHT22;4867;48.112;11.622;2023-04-15T06:28:34;6.40;99.90
9658;DHT22;4867;48.112;11.622;2023-04-15T06:31:02;6.40;99.90
9658;DHT22;4867;48.112;11.622;2023-04-15T06:33:30;6.50;99.90
9658;DHT22;4867;48.112;11.622;2023-04-15T06:35:57;6.50;99.90
9658;DHT22;4867;48.112;11.622;2023-04-15T06:38:24;6.60;99.90
9658;DHT22;4867;48.112;11.622;2023-04-15T06:40:52;6.60;99.90
9658;DHT22;4867;48.112;11.622;2023-04-15T06:43:19;6.70;99.90
9658;DHT22;4867;48.112;11.622;2023-04-15T06:45:46;6.80;99.90
9658;DHT22;4867;48.112;11.622;2023-04-15T06:48:14;6.80;99.90
9658;DHT22;4867;48.112;11.622;2023-04-15T06:50:41;6.90;99.90
9658;DHT22;4867;48.112;11.622;2023-04-15T06:53:09;7.00;99.90
9658;DHT22;4867;48.112;11.622;2023-04-15T06:55:36;7.00;99.90
9658;DHT22;4867;48.112;11.622;2023-04-15T06:58:03;7.00;99.90
9658;DHT22;4867;48.112;11.622;2023-04-15T07:00:30;7.10;99.90
9658;DHT22;4867;48.112;11.622;2023-04-15T07:02:59;7.20;99.90
9658;DHT22;4867;48.112;11.622;2023-04-15T07:05:30;7.20;99.90
9658;DHT22;4867;48.112;11.622;2023-04-15T07:07:58;7.20;99.90
9658;DHT22;4867;48.112;11.622;2023-04-15T07:10:26;7.30;99.90
9658;DHT22;4867;48.112;11.622;2023-04-15T07:12:53;7.40;99.90
9658;DHT22;4867;48.112;11.622;2023-04-15T07:15:20;7.50;99.90
9658;DHT22;4867;48.112;11.622;2023-04-15T07:17:48;7.70;99.90
9658;DHT22;4867;48.112;11.622;2023-04-15T07:20:16;7.90;99.90
9658;DHT22;4867;48.112;11.622;2023-04-15T07:22:43;8.00;99.90
9658;DHT22;4867;48.112;11.622;2023-04-15T07:25:10;8.10;99.90
9658;DHT22;4867;48.112;11.622;2023-04-15T07:27:38;8.10;99.90
9658;DHT22;4867;48.112;11.622;2023-04-15T07:30:06;8.10;99.90
9658;DHT22;4867;48.112;11.622;2023-04-15T07:32:33;8.20;99.90
9658;DHT22;4867;48.112;11.622;2023-04-15T07:35:00;8.40;99.90
9658;DHT22;4867;48.112;11.622;2023-04-15T07:37:29;8.60;99.90
9658;DHT22;4867;48.112;11.622;2023-04-15T07:39:56;8.70;99.90
9658;DHT22;4867;48.112;11.622;2023-04-15T07:42:24;8.40;99.90
9658;DHT22;4867;48.112;11.622;2023-04-15T07:44:51;8.40;99.90
9658;DHT22;4867;48.112;11.622;2023-04-15T07:47:18;8.60;99.90
9658;DHT22;4867;48.112;11.622;2023-04-15T07:49:46;8.60;99.90
9658;DHT22;4867;48.112;11.622;2023-04-15T07:52:13;8.40;99.90
9658;DHT22;4867;48.112;11.622;2023-04-15T07:54:40;8.60;99.90
9658;DHT22;4867;48.112;11.622;2023-04-15T07:57:07;8.60;99.90
9658;DHT22;4867;48.112;11.622;2023-04-15T07:59:34;8.90;99.90
9658;DHT22;4867;48.112;11.622;2023-04-15T08:02:02;9.00;99.90
9658;DHT22;4867;48.112;11.622;2023-04-15T08:04:30;9.10;99.90
9658;DHT22;4867;48.112;11.622;2023-04-15T08:06:58;9.10;99.90
9658;DHT22;4867;48.112;11.622;2023-04-15T08:09:25;9.20;99.90
9658;DHT22;4867;48.112;11.622;2023-04-15T08:11:53;9.30;99.90
9658;DHT22;4867;48.112;11.622;2023-04-15T08:14:20;9.30;99.90
9658;DHT22;4867;48.112;11.622;2023-04-15T08:16:48;9.60;99.90
9658;DHT22;4867;48.112;11.622;2023-04-15T08:19:15;9.80;99.90
9658;DHT22;4867;48.112;11.622;2023-04-15T08:21:43;9.80;99.90
9658;DHT22;4867;48.112;11.622;2023-04-15T08:24:10;9.90;99.90
9658;DHT22;4867;48.112;11.622;2023-04-15T08:26:37;10.00;99.90
9658;DHT22;4867;48.112;11.622;2023-04-15T08:29:04;10.10;99.90
9658;DHT22;4867;48.112;11.622;2023-04-15T08:31:32;10.20;99.90
9658;DHT22;4867;48.112;11.622;2023-04-15T08:33:59;10.20;99.90
9658;DHT22;4867;48.112;11.622;2023-04-15T08:36:26;10.10;99.90
9658;DHT22;4867;48.112;11.622;2023-04-15T08:38:54;10.10;99.90
9658;DHT22;4867;48.112;11.622;2023-04-15T08:41:23;10.10;99.90
9658;DHT22;4867;48.112;11.622;2023-04-15T08:44:03;10.10;99.90
9658;DHT22;4867;48.112;11.622;2023-04-15T08:46:31;10.00;99.90
9658;DHT22;4867;48.112;11.622;2023-04-15T08:49:09;9.90;99.90
9658;DHT22;4867;48.112;11.622;2023-04-15T08:51:38;9.80;99.90
9658;DHT22;4867;48.112;11.622;2023-04-15T08:54:07;9.90;99.90
9658;DHT22;4867;48.112;11.622;2023-04-15T08:56:35;9.70;99.90
9658;DHT22;4867;48.112;11.622;2023-04-15T08:59:03;9.80;99.90
9658;DHT22;4867;48.112;11.622;2023-04-15T09:01:31;9.70;99.90
9658;DHT22;4867;48.112;11.622;2023-04-15T09:04:01;9.70;99.90
9658;DHT22;4867;48.112;11.622;2023-04-15T09:06:29;9.80;99.90
9658;DHT22;4867;48.112;11.622;2023-04-15T09:08:56;9.80;99.90
9658;DHT22;4867;48.112;11.622;2023-04-15T09:11:23;9.90;99.90
9658;DHT22;4867;48.112;11.622;2023-04-15T09:13:50;10.00;99.90
9658;DHT22;4867;48.112;11.622;2023-04-15T09:16:18;10.00;99.90
9658;DHT22;4867;48.112;11.622;2023-04-15T09:18:45;9.90;99.90
9658;DHT22;4867;48.112;11.622;2023-04-15T09:21:15;10.10;99.90
9658;DHT22;4867;48.112;11.622;2023-04-15T09:23:59;10.10;99.90
9658;DHT22;4867;48.112;11.622;2023-04-15T09:26:35;10.20;99.90
9658;DHT22;4867;48.112;11.622;2023-04-15T09:29:10;10.40;99.90
9658;DHT22;4867;48.112;11.622;2023-04-15T09:31:40;10.60;99.90
9658;DHT22;4867;48.112;11.622;2023-04-15T09:34:09;10.40;99.90
9658;DHT22;4867;48.112;11.622;2023-04-15T09:36:56;10.10;99.90
9658;DHT22;4867;48.112;11.622;2023-04-15T09:39:23;10.20;99.90
9658;DHT22;4867;48.112;11.622;2023-04-15T09:42:06;10.20;99.90
9658;DHT22;4867;48.112;11.622;2023-04-15T09:44:34;10.40;99.90
9658;DHT22;4867;48.112;11.622;2023-04-15T09:47:02;10.40;99.90
9658;DHT22;4867;48.112;11.622;2023-04-15T09:49:29;10.40;99.90
9658;DHT22;4867;48.112;11.622;2023-04-15T09:51:58;10.40;99.90
9658;DHT22;4867;48.112;11.622;2023-04-15T09:54:36;10.20;99.90
9658;DHT22;4867;48.112;11.622;2023-04-15T09:57:08;10.10;99.90
9658;DHT22;4867;48.112;11.622;2023-04-15T09:59:36;10.00;99.90
9658;DHT22;4867;48.112;11.622;2023-04-15T10:02:04;10.10;99.90
9658;DHT22;4867;48.112;11.622;2023-04-15T10:04:39;10.10;99.90
9658;DHT22;4867;48.112;11.622;2023-04-15T10:07:08;10.00;99.90
9658;DHT22;4867;48.112;11.622;2023-04-15T10:09:37;10.00;99.90
9658;DHT22;4867;48.112;11.622;2023-04-15T10:12:04;9.80;99.90
9658;DHT22;4867;48.112;11.622;2023-04-15T10:14:33;9.60;99.90
9658;DHT22;4867;48.112;11.622;2023-04-15T10:17:03;9.70;99.90
9658;DHT22;4867;48.112;11.622;2023-04-15T10:19:32;9.70;99.90
9658;DHT22;4867;48.112;11.622;2023-04-15T10:21:59;9.60;99.90
9658;DHT22;4867;48.112;11.622;2023-04-15T10:24:29;9.70;99.90
9658;DHT22;4867;48.112;11.622;2023-04-15T10:26:58;9.90;99.90
9658;DHT22;4867;48.112;11.622;2023-04-15T10:29:25;9.80;99.90
9658;DHT22;4867;48.112;11.622;2023-04-15T10:31:54;9.80;99.90
9658;DHT22;4867;48.112;11.622;2023-04-15T10:34:23;9.90;99.90
9658;DHT22;4867;48.112;11.622;2023-04-15T10:36:54;10.00;99.90
9658;DHT22;4867;48.112;11.622;2023-04-15T10:39:42;10.20;99.90
9658;DHT22;4867;48.112;11.622;2023-04-15T10:42:11;10.20;99.90
9658;DHT22;4867;48.112;11.622;2023-04-15T10:44:42;10.20;99.90
9658;DHT22;4867;48.112;11.622;2023-04-15T10:47:15;10.50;99.90
9658;DHT22;4867;48.112;11.622;2023-04-15T10:49:58;10.40;99.90
9658;DHT22;4867;48.112;11.622;2023-04-15T10:52:27;10.40;99.90
9658;DHT22;4867;48.112;11.622;2023-04-15T10:55:03;10.30;99.90
9658;DHT22;4867;48.112;11.622;2023-04-15T10:57:39;10.40;99.90
9658;DHT22;4867;48.112;11.622;2023-04-15T11:00:14;10.40;99.90
9658;DHT22;4867;48.112;11.622;2023-04-15T11:05:11;10.50;99.90
9658;DHT22;4867;48.112;11.622;2023-04-15T11:07:50;10.50;99.90
9658;DHT22;4867;48.112;11.622;2023-04-15T11:15:32;10.40;99.90
9658;DHT22;4867;48.112;11.622;2023-04-15T11:18:10;10.30;99.90
9658;DHT22;4867;48.112;11.622;2023-04-15T11:20:40;10.20;99.90
9658;DHT22;4867;48.112;11.622;2023-04-15T11:23:08;10.30;99.90
9658;DHT22;4867;48.112;11.622;2023-04-15T11:25:41;10.20;99.90
9658;DHT22;4867;48.112;11.622;2023-04-15T11:28:10;10.40;99.90
9658;DHT22;4867;48.112;11.622;2023-04-15T11:30:39;10.40;99.90
9658;DHT22;4867;48.112;11.622;2023-04-15T11:33:09;10.40;99.90
9658;DHT22;4867;48.112;11.622;2023-04-15T11:35:42;10.40;99.90
9658;DHT22;4867;48.112;11.622;2023-04-15T11:38:14;10.30;99.90
9658;DHT22;4867;48.112;11.622;2023-04-15T11:40:42;10.20;99.90
9658;DHT22;4867;48.112;11.622;2023-04-15T11:43:18;10.00;99.90
9658;DHT22;4867;48.112;11.622;2023-04-15T11:48:21;9.70;99.90
9658;DHT22;4867;48.112;11.622;2023-04-15T11:50:54;9.50;99.90
9658;DHT22;4867;48.112;11.622;2023-04-15T11:53:22;9.50;99.90
9658;DHT22;4867;48.112;11.622;2023-04-15T11:55:52;9.40;99.90
9658;DHT22;4867;48.112;11.622;2023-04-15T11:58:21;9.30;99.90
9658;DHT22;4867;48.112;11.622;2023-04-15T12:00:54;9.30;99.90
9658;DHT22;4867;48.112;11.622;2023-04-15T12:09:02;9.50;99.90
9658;DHT22;4867;48.112;11.622;2023-04-15T12:16:42;9.70;99.90
9658;DHT22;4867;48.112;11.622;2023-04-15T12:19:18;9.70;99.90
9658;DHT22;4867;48.112;11.622;2023-04-15T12:21:48;9.70;99.90
9658;DHT22;4867;48.112;11.622;2023-04-15T12:24:20;9.70;99.90
9658;DHT22;4867;48.112;11.622;2023-04-15T12:26:51;9.70;99.90
9658;DHT22;4867;48.112;11.622;2023-04-15T12:29:23;9.70;99.90
9658;DHT22;4867;48.112;11.622;2023-04-15T12:31:56;9.80;99.90
9658;DHT22;4867;48.112;11.622;2023-04-15T12:34:28;9.90;99.90
9658;DHT22;4867;48.112;11.622;2023-04-15T12:36:57;9.90;99.90
9658;DHT22;4867;48.112;11.622;2023-04-15T12:39:26;9.90;99.90
9658;DHT22;4867;48.112;11.622;2023-04-15T12:41:57;9.90;99.90
9658;DHT22;4867;48.112;11.622;2023-04-15T12:44:27;9.90;99.90
9658;DHT22;4867;48.112;11.622;2023-04-15T12:46:55;9.90;99.90
9658;DHT22;4867;48.112;11.622;2023-04-15T12:49:23;10.00;99.90
9658;DHT22;4867;48.112;11.622;2023-04-15T12:51:52;10.00;99.90
9658;DHT22;4867;48.112;11.622;2023-04-15T12:54:20;10.00;99.90
9658;DHT22;4867;48.112;11.622;2023-04-15T12:56:49;10.00;99.90
9658;DHT22;4867;48.112;11.622;2023-04-15T12:59:16;10.00;99.90
9658;DHT22;4867;48.112;11.622;2023-04-15T13:01:45;10.00;99.90
9658;DHT22;4867;48.112;11.622;2023-04-15T13:04:14;9.80;99.90
9658;DHT22;4867;48.112;11.622;2023-04-15T13:06:42;9.70;99.90
9658;DHT22;4867;48.112;11.622;2023-04-15T13:09:09;9.70;99.90
9658;DHT22;4867;48.112;11.622;2023-04-15T13:11:36;9.80;99.90
9658;DHT22;4867;48.112;11.622;2023-04-15T13:14:06;9.80;99.90
9658;DHT22;4867;48.112;11.622;2023-04-15T13:16:33;9.70;99.90
9658;DHT22;4867;48.112;11.622;2023-04-15T13:19:03;9.60;99.90
9658;DHT22;4867;48.112;11.622;2023-04-15T13:21:30;9.50;99.90
9658;DHT22;4867;48.112;11.622;2023-04-15T13:24:02;9.50;99.90
9658;DHT22;4867;48.112;11.622;2023-04-15T13:26:31;9.50;99.90
9658;DHT22;4867;48.112;11.622;2023-04-15T13:28:59;9.40;99.90
9658;DHT22;4867;48.112;11.622;2023-04-15T13:31:27;9.40;99.90
9658;DHT22;4867;48.112;11.622;2023-04-15T13:33:55;9.40;99.90
9658;DHT22;4867;48.112;11.622;2023-04-15T13:36:23;9.20;99.90
9658;DHT22;4867;48.112;11.622;2023-04-15T13:38:50;9.20;99.90
9658;DHT22;4867;48.112;11.622;2023-04-15T13:41:18;9.40;99.90
9658;DHT22;4867;48.112;11.622;2023-04-15T13:43:46;9.20;99.90
9658;DHT22;4867;48.112;11.622;2023-04-15T13:46:13;9.30;99.90
9658;DHT22;4867;48.112;11.622;2023-04-15T13:48:41;9.40;99.90
9658;DHT22;4867;48.112;11.622;2023-04-15T13:51:08;9.50;99.90
9658;DHT22;4867;48.112;11.622;2023-04-15T13:53:35;9.40;99.90
9658;DHT22;4867;48.112;11.622;2023-04-15T13:56:09;9.30;99.90
9658;DHT22;4867;48.112;11.622;2023-04-15T13:58:37;9.10;99.90
9658;DHT22;4867;48.112;11.622;2023-04-15T14:01:05;9.00;99.90
9658;DHT22;4867;48.112;11.622;2023-04-15T14:03:35;8.80;99.90
9658;DHT22;4867;48.112;11.622;2023-04-15T14:06:04;8.90;99.90
9658;DHT22;4867;48.112;11.622;2023-04-15T14:08:32;8.80;99.90
9658;DHT22;4867;48.112;11.622;2023-04-15T14:11:00;8.80;99.90
9658;DHT22;4867;48.112;11.622;2023-04-15T14:13:27;8.90;99.90
9658;DHT22;4867;48.112;11.622;2023-04-15T14:15:56;8.90;99.90
9658;DHT22;4867;48.112;11.622;2023-04-15T14:18:23;8.80;99.90
9658;DHT22;4867;48.112;11.622;2023-04-15T14:20:50;8.80;99.90
9658;DHT22;4867;48.112;11.622;2023-04-15T14:23:18;8.90;99.90
9658;DHT22;4867;48.112;11.622;2023-04-15T14:25:45;8.80;99.90
9658;DHT22;4867;48.112;11.622;2023-04-15T14:28:15;8.80;99.90
9658;DHT22;4867;48.112;11.622;2023-04-15T14:30:42;8.90;99.90
9658;DHT22;4867;48.112;11.622;2023-04-15T14:33:09;8.80;99.90
9658;DHT22;4867;48.112;11.622;2023-04-15T14:35:37;8.80;99.90
9658;DHT22;4867;48.112;11.622;2023-04-15T14:38:05;8.70;99.90
9658;DHT22;4867;48.112;11.622;2023-04-15T14:40:36;8.70;99.90
9658;DHT22;4867;48.112;11.622;2023-04-15T14:43:03;8.80;99.90
9658;DHT22;4867;48.112;11.622;2023-04-15T14:45:30;8.80;99.90
9658;DHT22;4867;48.112;11.622;2023-04-15T14:47:58;8.80;99.90
9658;DHT22;4867;48.112;11.622;2023-04-15T14:50:25;8.90;99.90
9658;DHT22;4867;48.112;11.622;2023-04-15T14:52:52;8.90;99.90
9658;DHT22;4867;48.112;11.622;2023-04-15T14:55:20;8.90;99.90
9658;DHT22;4867;48.112;11.622;2023-04-15T14:57:47;8.90;99.90
9658;DHT22;4867;48.112;11.622;2023-04-15T15:00:14;8.90;99.90
9658;DHT22;4867;48.112;11.622;2023-04-15T15:02:42;9.00;99.90
9658;DHT22;4867;48.112;11.622;2023-04-15T15:05:10;9.00;99.90
9658;DHT22;4867;48.112;11.622;2023-04-15T15:07:38;9.00;99.90
9658;DHT22;4867;48.112;11.622;2023-04-15T15:10:07;9.00;99.90
9658;DHT22;4867;48.112;11.622;2023-04-15T15:12:34;9.00;99.90
9658;DHT22;4867;48.112;11.622;2023-04-15T15:15:03;9.00;99.90
9658;DHT22;4867;48.112;11.622;2023-04-15T15:17:45;8.90;99.90
9658;DHT22;4867;48.112;11.622;2023-04-15T15:20:13;8.90;99.90
9658;DHT22;4867;48.112;11.622;2023-04-15T15:22:40;8.80;99.90
9658;DHT22;4867;48.112;11.622;2023-04-15T15:25:07;8.70;99.90
9658;DHT22;4867;48.112;11.622;2023-04-15T15:27:34;8.50;99.90
9658;DHT22;4867;48.112;11.622;2023-04-15T15:30:04;8.30;99.90
9658;DHT22;4867;48.112;11.622;2023-04-15T15:32:33;8.10;99.90
9658;DHT22;4867;48.112;11.622;2023-04-15T15:35:00;7.80;99.90
9658;DHT22;4867;48.112;11.622;2023-04-15T15:37:29;7.80;99.90
9658;DHT22;4867;48.112;11.622;2023-04-15T15:39:56;7.60;99.90
9658;DHT22;4867;48.112;11.622;2023-04-15T15:42:24;7.50;99.90
9658;DHT22;4867;48.112;11.622;2023-04-15T15:44:51;7.40;99.90
9658;DHT22;4867;48.112;11.622;2023-04-15T15:47:20;7.30;99.90
9658;DHT22;4867;48.112;11.622;2023-04-15T15:49:48;7.40;99.90
9658;DHT22;4867;48.112;11.622;2023-04-15T15:52:15;7.40;99.90
9658;DHT22;4867;48.112;11.622;2023-04-15T15:54:42;7.40;99.90
9658;DHT22;4867;48.112;11.622;2023-04-15T15:57:10;7.30;99.90
9658;DHT22;4867;48.112;11.622;2023-04-15T15:59:37;7.40;99.90
9658;DHT22;4867;48.112;11.622;2023-04-15T16:02:10;7.30;99.90
9658;DHT22;4867;48.112;11.622;2023-04-15T16:04:38;7.40;99.90
9658;DHT22;4867;48.112;11.622;2023-04-15T16:07:06;7.30;99.90
9658;DHT22;4867;48.112;11.622;2023-04-15T16:09:33;7.40;99.90
9658;DHT22;4867;48.112;11.622;2023-04-15T16:12:00;7.40;99.90
9658;DHT22;4867;48.112;11.622;2023-04-15T16:14:29;7.40;99.90
9658;DHT22;4867;48.112;11.622;2023-04-15T16:16:57;7.50;99.90
9658;DHT22;4867;48.112;11.622;2023-04-15T16:19:24;7.50;99.90
9658;DHT22;4867;48.112;11.622;2023-04-15T16:21:51;7.60;99.90
9658;DHT22;4867;48.112;11.622;2023-04-15T16:24:18;7.60;99.90
9658;DHT22;4867;48.112;11.622;2023-04-15T16:26:46;7.60;99.90
9658;DHT22;4867;48.112;11.622;2023-04-15T16:29:13;7.60;99.90